sensor_id;sensor_type;location;lat;lon;timestamp;temperature;humidity
51579;DHT22;47998;53.242;6.386;2022-09-09T00:08:02;13.00;99.90
51579;DHT22;47998;53.242;6.386;2022-09-09T00:10:39;13.40;99.90
51579;DHT22;47998;53.242;6.386;2022-09-09T00:13:28;12.70;99.90
51579;DHT22;47998;53.242;6.386;2022-09-09T00:16:15;12.60;99.90
51579;DHT22;47998;53.242;6.386;2022-09-09T00:19:26;13.30;99.90
51579;DHT22;47998;53.242;6.386;2022-09-09T00:21:55;13.30;99.90
51579;DHT22;47998;53.242;6.386;2022-09-09T00:24:32;13.10;99.90
51579;DHT22;47998;53.242;6.386;2022-09-09T00:27:06;12.50;99.90
51579;DHT22;47998;53.242;6.386;2022-09-09T00:29:41;12.80;99.90
51579;DHT22;47998;53.242;6.386;2022-09-09T00:32:16;12.60;99.90
51579;DHT22;47998;53.242;6.386;2022-09-09T00:34:51;13.20;99.90
51579;DHT22;47998;53.242;6.386;2022-09-09T00:37:19;12.80;99.90
51579;DHT22;47998;53.242;6.386;2022-09-09T00:39:47;12.90;99.90
51579;DHT22;47998;53.242;6.386;2022-09-09T00:42:26;13.10;99.90
51579;DHT22;47998;53.242;6.386;2022-09-09T00:47:49;12.50;99.90
51579;DHT22;47998;53.242;6.386;2022-09-09T00:53:27;13.20;99.90
51579;DHT22;47998;53.242;6.386;2022-09-09T00:56:18;12.80;99.90
51579;DHT22;47998;53.242;6.386;2022-09-09T00:59:12;13.00;99.90
51579;DHT22;47998;53.242;6.386;2022-09-09T01:01:40;13.00;99.90
51579;DHT22;47998;53.242;6.386;2022-09-09T01:04:13;12.60;99.90
51579;DHT22;47998;53.242;6.386;2022-09-09T01:06:41;12.80;99.90
51579;DHT22;47998;53.242;6.386;2022-09-09T01:12:41;12.80;99.90
51579;DHT22;47998;53.242;6.386;2022-09-09T01:15:11;12.50;99.90
51579;DHT22;47998;53.242;6.386;2022-09-09T01:17:48;12.90;99.90
51579;DHT22;47998;53.242;6.386;2022-09-09T01:20:26;12.10;99.90
51579;DHT22;47998;53.242;6.386;2022-09-09T01:28:29;12.60;99.90
51579;DHT22;47998;53.242;6.386;2022-09-09T01:30:57;12.60;99.90
51579;DHT22;47998;53.242;6.386;2022-09-09T01:33:24;12.80;99.90
51579;DHT22;47998;53.242;6.386;2022-09-09T01:36:20;12.70;99.90
51579;DHT22;47998;53.242;6.386;2022-09-09T01:38:46;12.90;99.90
51579;DHT22;47998;53.242;6.386;2022-09-09T01:41:12;12.10;99.90
51579;DHT22;47998;53.242;6.386;2022-09-09T01:43:38;12.90;99.90
51579;DHT22;47998;53.242;6.386;2022-09-09T01:46:04;12.10;99.90
51579;DHT22;47998;53.242;6.386;2022-09-09T01:48:31;12.90;99.90
51579;DHT22;47998;53.242;6.386;2022-09-09T01:50:56;12.90;99.90
51579;DHT22;47998;53.242;6.386;2022-09-09T01:53:22;12.30;99.90
51579;DHT22;47998;53.242;6.386;2022-09-09T01:56:11;12.10;99.90
51579;DHT22;47998;53.242;6.386;2022-09-09T02:07:01;12.50;99.90
51579;DHT22;47998;53.242;6.386;2022-09-09T02:09:29;12.50;99.90
51579;DHT22;47998;53.242;6.386;2022-09-09T02:12:16;12.70;99.90
51579;DHT22;47998;53.242;6.386;2022-09-09T02:14:52;12.20;99.90
51579;DHT22;47998;53.242;6.386;2022-09-09T02:17:28;12.20;99.90
51579;DHT22;47998;53.242;6.386;2022-09-09T02:20:08;12.20;99.90
51579;DHT22;47998;53.242;6.386;2022-09-09T02:22:37;12.90;99.90
51579;DHT22;47998;53.242;6.386;2022-09-09T02:25:07;12.70;99.90
51579;DHT22;47998;53.242;6.386;2022-09-09T02:27:34;13.20;99.90
51579;DHT22;47998;53.242;6.386;2022-09-09T02:30:02;12.80;99.90
51579;DHT22;47998;53.242;6.386;2022-09-09T02:32:30;13.30;99.90
51579;DHT22;47998;53.242;6.386;2022-09-09T02:35:05;13.50;99.90
51579;DHT22;47998;53.242;6.386;2022-09-09T02:37:35;13.30;99.90
51579;DHT22;47998;53.242;6.386;2022-09-09T02:40:06;13.30;99.90
51579;DHT22;47998;53.242;6.386;2022-09-09T02:42:41;13.50;99.90
51579;DHT22;47998;53.242;6.386;2022-09-09T02:45:10;13.10;99.90
51579;DHT22;47998;53.242;6.386;2022-09-09T02:48:00;12.90;99.90
51579;DHT22;47998;53.242;6.386;2022-09-09T02:50:48;12.90;99.90
51579;DHT22;47998;53.242;6.386;2022-09-09T02:53:22;13.50;99.90
51579;DHT22;47998;53.242;6.386;2022-09-09T02:55:57;13.80;99.90
51579;DHT22;47998;53.242;6.386;2022-09-09T02:58:23;13.70;99.90
51579;DHT22;47998;53.242;6.386;2022-09-09T03:00:50;13.70;99.90
51579;DHT22;47998;53.242;6.386;2022-09-09T03:03:17;13.20;99.90
51579;DHT22;47998;53.242;6.386;2022-09-09T03:05:44;13.80;99.90
51579;DHT22;47998;53.242;6.386;2022-09-09T03:08:10;13.20;99.90
51579;DHT22;47998;53.242;6.386;2022-09-09T03:10:36;13.70;99.90
51579;DHT22;47998;53.242;6.386;2022-09-09T03:13:02;14.00;99.90
51579;DHT22;47998;53.242;6.386;2022-09-09T03:15:29;14.00;99.90
51579;DHT22;47998;53.242;6.386;2022-09-09T03:17:57;13.30;99.90
51579;DHT22;47998;53.242;6.386;2022-09-09T03:20:27;14.00;99.90
51579;DHT22;47998;53.242;6.386;2022-09-09T03:22:53;14.10;99.90
51579;DHT22;47998;53.242;6.386;2022-09-09T03:25:20;14.00;99.90
51579;DHT22;47998;53.242;6.386;2022-09-09T03:27:48;14.00;99.90
51579;DHT22;47998;53.242;6.386;2022-09-09T03:30:14;14.00;99.90
51579;DHT22;47998;53.242;6.386;2022-09-09T03:32:41;14.10;99.90
51579;DHT22;47998;53.242;6.386;2022-09-09T03:35:07;13.30;99.90
51579;DHT22;47998;53.242;6.386;2022-09-09T03:37:33;14.00;99.90
51579;DHT22;47998;53.242;6.386;2022-09-09T03:39:59;13.10;99.90
51579;DHT22;47998;53.242;6.386;2022-09-09T03:42:25;13.70;99.90
51579;DHT22;47998;53.242;6.386;2022-09-09T03:44:51;13.80;99.90
51579;DHT22;47998;53.242;6.386;2022-09-09T03:47:18;13.10;99.90
51579;DHT22;47998;53.242;6.386;2022-09-09T03:49:44;13.20;99.90
51579;DHT22;47998;53.242;6.386;2022-09-09T03:52:10;13.50;99.90
51579;DHT22;47998;53.242;6.386;2022-09-09T03:54:36;13.70;99.90
51579;DHT22;47998;53.242;6.386;2022-09-09T03:57:02;13.10;99.90
51579;DHT22;47998;53.242;6.386;2022-09-09T03:59:28;13.00;99.90
51579;DHT22;47998;53.242;6.386;2022-09-09T04:01:53;13.90;99.90
51579;DHT22;47998;53.242;6.386;2022-09-09T04:04:20;13.30;99.90
51579;DHT22;47998;53.242;6.386;2022-09-09T04:06:46;13.10;99.90
51579;DHT22;47998;53.242;6.386;2022-09-09T04:09:14;13.50;99.90
51579;DHT22;47998;53.242;6.386;2022-09-09T04:11:40;13.80;99.90
51579;DHT22;47998;53.242;6.386;2022-09-09T04:14:05;13.20;99.90
51579;DHT22;47998;53.242;6.386;2022-09-09T04:16:35;14.10;99.90
51579;DHT22;47998;53.242;6.386;2022-09-09T04:19:03;14.00;99.90
51579;DHT22;47998;53.242;6.386;2022-09-09T04:21:33;13.90;99.90
51579;DHT22;47998;53.242;6.386;2022-09-09T04:23:58;13.40;99.90
51579;DHT22;47998;53.242;6.386;2022-09-09T04:26:24;14.10;99.90
51579;DHT22;47998;53.242;6.386;2022-09-09T04:28:50;14.20;99.90
51579;DHT22;47998;53.242;6.386;2022-09-09T04:31:21;14.20;99.90
51579;DHT22;47998;53.242;6.386;2022-09-09T04:33:49;14.00;99.90
51579;DHT22;47998;53.242;6.386;2022-09-09T04:36:15;13.30;99.90
51579;DHT22;47998;53.242;6.386;2022-09-09T04:38:41;13.80;99.90
51579;DHT22;47998;53.242;6.386;2022-09-09T04:41:07;13.70;99.90
51579;DHT22;47998;53.242;6.386;2022-09-09T04:43:34;14.10;99.90
51579;DHT22;47998;53.242;6.386;2022-09-09T04:46:00;13.40;99.90
51579;DHT22;47998;53.242;6.386;2022-09-09T04:48:25;14.20;99.90
51579;DHT22;47998;53.242;6.386;2022-09-09T04:50:59;14.00;99.90
51579;DHT22;47998;53.242;6.386;2022-09-09T04:53:26;14.30;99.90
51579;DHT22;47998;53.242;6.386;2022-09-09T04:56:21;13.90;99.90
51579;DHT22;47998;53.242;6.386;2022-09-09T04:58:47;13.90;99.90
51579;DHT22;47998;53.242;6.386;2022-09-09T05:01:19;14.30;99.90
51579;DHT22;47998;53.242;6.386;2022-09-09T05:03:45;13.50;99.90
51579;DHT22;47998;53.242;6.386;2022-09-09T05:06:19;13.80;99.90
51579;DHT22;47998;53.242;6.386;2022-09-09T05:08:45;13.40;99.90
51579;DHT22;47998;53.242;6.386;2022-09-09T05:11:21;13.50;99.90
51579;DHT22;47998;53.242;6.386;2022-09-09T05:13:49;13.40;99.90
51579;DHT22;47998;53.242;6.386;2022-09-09T05:16:16;14.30;99.90
51579;DHT22;47998;53.242;6.386;2022-09-09T05:18:42;14.20;99.90
51579;DHT22;47998;53.242;6.386;2022-09-09T05:21:09;13.40;99.90
51579;DHT22;47998;53.242;6.386;2022-09-09T05:23:35;14.20;99.90
51579;DHT22;47998;53.242;6.386;2022-09-09T05:26:03;14.20;99.90
51579;DHT22;47998;53.242;6.386;2022-09-09T05:28:29;13.80;99.90
51579;DHT22;47998;53.242;6.386;2022-09-09T05:31:00;14.30;99.90
51579;DHT22;47998;53.242;6.386;2022-09-09T05:33:27;13.60;99.90
51579;DHT22;47998;53.242;6.386;2022-09-09T05:35:57;13.50;99.90
51579;DHT22;47998;53.242;6.386;2022-09-09T05:38:23;13.70;99.90
51579;DHT22;47998;53.242;6.386;2022-09-09T05:40:53;14.30;99.90
51579;DHT22;47998;53.242;6.386;2022-09-09T05:43:19;13.80;99.90
51579;DHT22;47998;53.242;6.386;2022-09-09T05:45:46;14.30;99.90
51579;DHT22;47998;53.242;6.386;2022-09-09T05:48:14;14.10;99.90
51579;DHT22;47998;53.242;6.386;2022-09-09T05:50:42;14.00;99.90
51579;DHT22;47998;53.242;6.386;2022-09-09T05:53:08;14.00;99.90
51579;DHT22;47998;53.242;6.386;2022-09-09T05:55:35;14.10;99.90
51579;DHT22;47998;53.242;6.386;2022-09-09T05:58:01;14.00;99.90
51579;DHT22;47998;53.242;6.386;2022-09-09T06:00:27;13.90;99.90
51579;DHT22;47998;53.242;6.386;2022-09-09T06:02:53;14.20;99.90
51579;DHT22;47998;53.242;6.386;2022-09-09T06:05:19;13.70;99.90
51579;DHT22;47998;53.242;6.386;2022-09-09T06:07:45;14.30;99.90
51579;DHT22;47998;53.242;6.386;2022-09-09T06:10:11;14.10;99.90
51579;DHT22;47998;53.242;6.386;2022-09-09T06:12:39;14.00;99.90
51579;DHT22;47998;53.242;6.386;2022-09-09T06:15:05;14.30;99.90
51579;DHT22;47998;53.242;6.386;2022-09-09T06:17:31;13.80;99.90
51579;DHT22;47998;53.242;6.386;2022-09-09T06:19:57;14.40;99.90
51579;DHT22;47998;53.242;6.386;2022-09-09T06:22:23;14.00;99.90
51579;DHT22;47998;53.242;6.386;2022-09-09T06:24:48;14.30;99.90
51579;DHT22;47998;53.242;6.386;2022-09-09T06:27:14;14.30;99.90
51579;DHT22;47998;53.242;6.386;2022-09-09T06:29:40;14.10;99.90
51579;DHT22;47998;53.242;6.386;2022-09-09T06:32:05;14.20;99.90
51579;DHT22;47998;53.242;6.386;2022-09-09T06:34:33;14.20;99.90
51579;DHT22;47998;53.242;6.386;2022-09-09T06:37:01;14.40;99.90
51579;DHT22;47998;53.242;6.386;2022-09-09T06:39:26;14.30;99.90
51579;DHT22;47998;53.242;6.386;2022-09-09T06:41:52;14.40;99.90
51579;DHT22;47998;53.242;6.386;2022-09-09T06:44:19;14.60;99.90
51579;DHT22;47998;53.242;6.386;2022-09-09T06:46:44;14.90;99.90
51579;DHT22;47998;53.242;6.386;2022-09-09T06:49:13;14.70;99.90
51579;DHT22;47998;53.242;6.386;2022-09-09T06:51:39;15.10;99.90
51579;DHT22;47998;53.242;6.386;2022-09-09T06:54:08;15.00;99.90
51579;DHT22;47998;53.242;6.386;2022-09-09T06:56:39;15.10;99.90
51579;DHT22;47998;53.242;6.386;2022-09-09T06:59:08;14.90;99.90
51579;DHT22;47998;53.242;6.386;2022-09-09T07:01:39;14.90;99.90
51579;DHT22;47998;53.242;6.386;2022-09-09T07:04:17;15.30;99.90
51579;DHT22;47998;53.242;6.386;2022-09-09T07:06:44;15.20;99.90
51579;DHT22;47998;53.242;6.386;2022-09-09T07:09:12;15.20;99.90
51579;DHT22;47998;53.242;6.386;2022-09-09T07:11:44;15.20;99.90
51579;DHT22;47998;53.242;6.386;2022-09-09T07:14:10;15.00;99.90
51579;DHT22;47998;53.242;6.386;2022-09-09T07:16:43;15.20;99.90
51579;DHT22;47998;53.242;6.386;2022-09-09T07:19:10;15.20;99.90
51579;DHT22;47998;53.242;6.386;2022-09-09T07:21:36;15.20;99.90
51579;DHT22;47998;53.242;6.386;2022-09-09T07:24:02;15.10;99.90
51579;DHT22;47998;53.242;6.386;2022-09-09T07:26:30;15.20;99.90
51579;DHT22;47998;53.242;6.386;2022-09-09T07:28:56;15.30;99.90
51579;DHT22;47998;53.242;6.386;2022-09-09T07:31:28;15.40;99.90
51579;DHT22;47998;53.242;6.386;2022-09-09T07:33:55;15.40;99.90
51579;DHT22;47998;53.242;6.386;2022-09-09T07:36:26;15.50;99.90
51579;DHT22;47998;53.242;6.386;2022-09-09T07:39:19;15.60;99.90
51579;DHT22;47998;53.242;6.386;2022-09-09T07:41:47;15.60;4.80
51579;DHT22;47998;53.242;6.386;2022-09-09T07:44:16;15.70;99.90
51579;DHT22;47998;53.242;6.386;2022-09-09T07:46:42;15.80;99.90
51579;DHT22;47998;53.242;6.386;2022-09-09T07:49:10;15.80;95.70
51579;DHT22;47998;53.242;6.386;2022-09-09T07:51:41;15.90;19.80
51579;DHT22;47998;53.242;6.386;2022-09-09T07:54:10;15.90;1.00
51579;DHT22;47998;53.242;6.386;2022-09-09T07:56:37;16.00;1.00
51579;DHT22;47998;53.242;6.386;2022-09-09T07:59:03;16.00;1.00
51579;DHT22;47998;53.242;6.386;2022-09-09T08:01:39;16.10;1.00
51579;DHT22;47998;53.242;6.386;2022-09-09T08:04:08;16.10;1.00
51579;DHT22;47998;53.242;6.386;2022-09-09T08:06:39;16.30;1.00
51579;DHT22;47998;53.242;6.386;2022-09-09T08:09:06;16.30;99.90
51579;DHT22;47998;53.242;6.386;2022-09-09T08:11:33;16.40;1.00
51579;DHT22;47998;53.242;6.386;2022-09-09T08:13:59;16.50;99.90
51579;DHT22;47998;53.242;6.386;2022-09-09T08:16:28;16.60;99.90
51579;DHT22;47998;53.242;6.386;2022-09-09T08:18:55;16.70;99.90
51579;DHT22;47998;53.242;6.386;2022-09-09T08:21:24;16.80;1.00
51579;DHT22;47998;53.242;6.386;2022-09-09T08:23:52;16.90;99.90
51579;DHT22;47998;53.242;6.386;2022-09-09T08:26:24;17.00;99.90
51579;DHT22;47998;53.242;6.386;2022-09-09T08:28:51;16.90;1.00
51579;DHT22;47998;53.242;6.386;2022-09-09T08:31:20;17.00;1.00
51579;DHT22;47998;53.242;6.386;2022-09-09T08:33:46;17.00;1.00
51579;DHT22;47998;53.242;6.386;2022-09-09T08:36:15;17.10;40.70
51579;DHT22;47998;53.242;6.386;2022-09-09T08:38:47;17.30;23.20
51579;DHT22;47998;53.242;6.386;2022-09-09T08:41:48;17.30;1.00
51579;DHT22;47998;53.242;6.386;2022-09-09T08:47:17;17.40;99.90
51579;DHT22;47998;53.242;6.386;2022-09-09T08:53:05;17.40;99.90
51579;DHT22;47998;53.242;6.386;2022-09-09T08:55:59;17.50;99.90
51579;DHT22;47998;53.242;6.386;2022-09-09T08:58:31;17.40;99.90
51579;DHT22;47998;53.242;6.386;2022-09-09T09:01:28;17.50;99.90
51579;DHT22;47998;53.242;6.386;2022-09-09T09:07:22;17.60;99.90
51579;DHT22;47998;53.242;6.386;2022-09-09T09:10:03;17.70;77.20
51579;DHT22;47998;53.242;6.386;2022-09-09T09:12:38;17.80;99.90
51579;DHT22;47998;53.242;6.386;2022-09-09T09:15:27;18.00;91.50
51579;DHT22;47998;53.242;6.386;2022-09-09T09:17:55;18.00;99.90
51579;DHT22;47998;53.242;6.386;2022-09-09T09:20:54;18.10;2.20
51579;DHT22;47998;53.242;6.386;2022-09-09T09:23:25;18.30;99.90
51579;DHT22;47998;53.242;6.386;2022-09-09T09:25:59;18.50;1.00
51579;DHT22;47998;53.242;6.386;2022-09-09T09:28:29;18.70;92.70
51579;DHT22;47998;53.242;6.386;2022-09-09T09:31:02;19.10;99.90
51579;DHT22;47998;53.242;6.386;2022-09-09T09:33:38;19.80;82.40
51579;DHT22;47998;53.242;6.386;2022-09-09T09:36:11;20.10;2.40
51579;DHT22;47998;53.242;6.386;2022-09-09T09:38:52;20.20;99.90
51579;DHT22;47998;53.242;6.386;2022-09-09T09:41:34;20.00;68.80
51579;DHT22;47998;53.242;6.386;2022-09-09T09:44:01;20.20;99.90
51579;DHT22;47998;53.242;6.386;2022-09-09T09:46:28;20.30;99.90
51579;DHT22;47998;53.242;6.386;2022-09-09T09:49:12;20.80;99.90
51579;DHT22;47998;53.242;6.386;2022-09-09T09:51:39;21.70;99.90
51579;DHT22;47998;53.242;6.386;2022-09-09T09:54:22;22.60;37.00
51579;DHT22;47998;53.242;6.386;2022-09-09T09:56:50;23.10;1.00
51579;DHT22;47998;53.242;6.386;2022-09-09T10:01:51;23.20;99.90
51579;DHT22;47998;53.242;6.386;2022-09-09T10:04:19;22.10;1.00
51579;DHT22;47998;53.242;6.386;2022-09-09T10:06:46;21.20;19.70
51579;DHT22;47998;53.242;6.386;2022-09-09T10:09:28;20.60;99.90
51579;DHT22;47998;53.242;6.386;2022-09-09T10:17:35;20.20;99.90
51579;DHT22;47998;53.242;6.386;2022-09-09T10:23:06;19.70;99.90
51579;DHT22;47998;53.242;6.386;2022-09-09T10:31:27;19.80;1.00
51579;DHT22;47998;53.242;6.386;2022-09-09T10:36:20;20.40;1.00
51579;DHT22;47998;53.242;6.386;2022-09-09T10:38:48;20.50;99.90
51579;DHT22;47998;53.242;6.386;2022-09-09T10:44:41;20.20;99.90
51579;DHT22;47998;53.242;6.386;2022-09-09T10:55:42;20.90;99.90
51579;DHT22;47998;53.242;6.386;2022-09-09T10:58:20;22.10;99.90
51579;DHT22;47998;53.242;6.386;2022-09-09T11:00:55;21.90;1.00
51579;DHT22;47998;53.242;6.386;2022-09-09T11:03:26;21.60;3.60
51579;DHT22;47998;53.242;6.386;2022-09-09T11:06:04;21.30;24.90
51579;DHT22;47998;53.242;6.386;2022-09-09T11:08:34;21.00;7.40
51579;DHT22;47998;53.242;6.386;2022-09-09T11:11:20;20.60;1.00
51579;DHT22;47998;53.242;6.386;2022-09-09T11:22:20;22.20;99.90
51579;DHT22;47998;53.242;6.386;2022-09-09T11:25:13;21.70;48.20
51579;DHT22;47998;53.242;6.386;2022-09-09T11:38:52;23.40;1.00
51579;DHT22;47998;53.242;6.386;2022-09-09T11:41:20;22.60;1.00
51579;DHT22;47998;53.242;6.386;2022-09-09T11:43:53;21.70;1.00
51579;DHT22;47998;53.242;6.386;2022-09-09T11:46:21;21.20;1.00
51579;DHT22;47998;53.242;6.386;2022-09-09T11:49:03;21.00;99.90
51579;DHT22;47998;53.242;6.386;2022-09-09T11:51:31;20.80;99.90
51579;DHT22;47998;53.242;6.386;2022-09-09T11:53:59;20.70;99.90
51579;DHT22;47998;53.242;6.386;2022-09-09T11:56:33;20.80;99.90
51579;DHT22;47998;53.242;6.386;2022-09-09T11:59:06;20.80;99.90
51579;DHT22;47998;53.242;6.386;2022-09-09T12:01:53;20.70;99.90
51579;DHT22;47998;53.242;6.386;2022-09-09T12:07:27;20.80;99.90
51579;DHT22;47998;53.242;6.386;2022-09-09T12:10:03;20.90;1.00
51579;DHT22;47998;53.242;6.386;2022-09-09T12:12:40;21.20;99.90
51579;DHT22;47998;53.242;6.386;2022-09-09T12:17:43;21.60;99.90
51579;DHT22;47998;53.242;6.386;2022-09-09T12:25:52;21.50;99.90
51579;DHT22;47998;53.242;6.386;2022-09-09T12:34:16;20.50;99.90
51579;DHT22;47998;53.242;6.386;2022-09-09T12:36:43;20.40;99.90
51579;DHT22;47998;53.242;6.386;2022-09-09T12:41:51;20.30;99.90
51579;DHT22;47998;53.242;6.386;2022-09-09T12:44:22;20.40;99.90
51579;DHT22;47998;53.242;6.386;2022-09-09T12:46:48;21.10;1.00
51579;DHT22;47998;53.242;6.386;2022-09-09T12:49:40;21.80;48.40
51579;DHT22;47998;53.242;6.386;2022-09-09T12:54:50;22.90;99.90
51579;DHT22;47998;53.242;6.386;2022-09-09T12:57:17;22.70;99.90
51579;DHT22;47998;53.242;6.386;2022-09-09T12:59:44;22.60;99.90
51579;DHT22;47998;53.242;6.386;2022-09-09T13:02:26;22.30;99.90
51579;DHT22;47998;53.242;6.386;2022-09-09T13:04:53;22.20;99.90
51579;DHT22;47998;53.242;6.386;2022-09-09T13:07:20;22.50;99.90
51579;DHT22;47998;53.242;6.386;2022-09-09T13:09:48;22.50;99.90
51579;DHT22;47998;53.242;6.386;2022-09-09T13:12:22;22.70;99.90
51579;DHT22;47998;53.242;6.386;2022-09-09T13:14:50;23.00;99.90
51579;DHT22;47998;53.242;6.386;2022-09-09T13:17:28;23.30;99.90
51579;DHT22;47998;53.242;6.386;2022-09-09T13:19:54;23.40;99.90
51579;DHT22;47998;53.242;6.386;2022-09-09T13:22:31;23.60;99.90
51579;DHT22;47998;53.242;6.386;2022-09-09T13:25:24;23.50;38.10
51579;DHT22;47998;53.242;6.386;2022-09-09T13:28:02;23.10;1.00
51579;DHT22;47998;53.242;6.386;2022-09-09T13:30:36;22.60;20.80
51579;DHT22;47998;53.242;6.386;2022-09-09T13:35:50;21.90;99.90
51579;DHT22;47998;53.242;6.386;2022-09-09T13:38:18;22.00;99.90
51579;DHT22;47998;53.242;6.386;2022-09-09T13:41:18;21.90;99.90
51579;DHT22;47998;53.242;6.386;2022-09-09T13:43:47;21.60;99.90
51579;DHT22;47998;53.242;6.386;2022-09-09T13:46:32;21.50;1.00
51579;DHT22;47998;53.242;6.386;2022-09-09T13:49:19;21.20;99.90
51579;DHT22;47998;53.242;6.386;2022-09-09T13:51:48;20.80;1.00
51579;DHT22;47998;53.242;6.386;2022-09-09T13:54:17;20.60;1.00
51579;DHT22;47998;53.242;6.386;2022-09-09T13:56:44;20.40;99.90
51579;DHT22;47998;53.242;6.386;2022-09-09T13:59:18;20.30;99.90
51579;DHT22;47998;53.242;6.386;2022-09-09T14:01:45;20.10;99.90
51579;DHT22;47998;53.242;6.386;2022-09-09T14:04:11;19.80;1.00
51579;DHT22;47998;53.242;6.386;2022-09-09T14:06:38;19.80;18.50
51579;DHT22;47998;53.242;6.386;2022-09-09T14:09:11;20.30;89.40
51579;DHT22;47998;53.242;6.386;2022-09-09T14:11:41;21.10;99.90
51579;DHT22;47998;53.242;6.386;2022-09-09T14:14:07;21.60;99.90
51579;DHT22;47998;53.242;6.386;2022-09-09T14:16:33;21.60;29.90
51579;DHT22;47998;53.242;6.386;2022-09-09T14:18:59;21.30;99.90
51579;DHT22;47998;53.242;6.386;2022-09-09T14:21:27;21.10;99.90
51579;DHT22;47998;53.242;6.386;2022-09-09T14:23:53;20.80;99.90
51579;DHT22;47998;53.242;6.386;2022-09-09T14:26:22;20.30;99.90
51579;DHT22;47998;53.242;6.386;2022-09-09T14:28:49;19.90;99.90
51579;DHT22;47998;53.242;6.386;2022-09-09T14:31:15;19.60;1.00
51579;DHT22;47998;53.242;6.386;2022-09-09T14:33:43;19.10;99.90
51579;DHT22;47998;53.242;6.386;2022-09-09T14:36:09;18.40;99.90
51579;DHT22;47998;53.242;6.386;2022-09-09T14:38:37;18.10;99.90
51579;DHT22;47998;53.242;6.386;2022-09-09T14:41:10;17.80;99.90
51579;DHT22;47998;53.242;6.386;2022-09-09T14:43:38;17.70;99.90
51579;DHT22;47998;53.242;6.386;2022-09-09T14:46:09;17.80;1.00
51579;DHT22;47998;53.242;6.386;2022-09-09T14:48:36;17.80;1.00
51579;DHT22;47998;53.242;6.386;2022-09-09T14:51:06;17.90;1.00
51579;DHT22;47998;53.242;6.386;2022-09-09T14:53:36;18.00;1.00
51579;DHT22;47998;53.242;6.386;2022-09-09T14:56:10;17.90;1.00
51579;DHT22;47998;53.242;6.386;2022-09-09T14:58:37;17.90;1.00
51579;DHT22;47998;53.242;6.386;2022-09-09T15:01:11;18.00;1.00
51579;DHT22;47998;53.242;6.386;2022-09-09T15:03:39;18.10;28.10
51579;DHT22;47998;53.242;6.386;2022-09-09T15:06:09;18.30;99.90
51579;DHT22;47998;53.242;6.386;2022-09-09T15:08:37;18.50;85.50
51579;DHT22;47998;53.242;6.386;2022-09-09T15:11:04;19.10;24.40
51579;DHT22;47998;53.242;6.386;2022-09-09T15:13:30;19.50;1.00
51579;DHT22;47998;53.242;6.386;2022-09-09T15:16:02;20.20;1.00
51579;DHT22;47998;53.242;6.386;2022-09-09T15:18:28;21.20;99.90
51579;DHT22;47998;53.242;6.386;2022-09-09T15:20:54;22.20;10.10
51579;DHT22;47998;53.242;6.386;2022-09-09T15:23:20;23.00;99.90
51579;DHT22;47998;53.242;6.386;2022-09-09T15:25:57;23.40;1.00
51579;DHT22;47998;53.242;6.386;2022-09-09T15:28:25;23.00;37.70
51579;DHT22;47998;53.242;6.386;2022-09-09T15:30:52;22.30;99.90
51579;DHT22;47998;53.242;6.386;2022-09-09T15:33:19;21.40;99.90
51579;DHT22;47998;53.242;6.386;2022-09-09T15:35:45;20.50;1.00
51579;DHT22;47998;53.242;6.386;2022-09-09T15:38:11;20.10;1.00
51579;DHT22;47998;53.242;6.386;2022-09-09T15:40:39;20.30;99.90
51579;DHT22;47998;53.242;6.386;2022-09-09T15:43:05;20.80;43.80
51579;DHT22;47998;53.242;6.386;2022-09-09T15:45:32;20.90;99.90
51579;DHT22;47998;53.242;6.386;2022-09-09T15:47:59;20.50;99.90
51579;DHT22;47998;53.242;6.386;2022-09-09T15:50:28;20.20;1.00
51579;DHT22;47998;53.242;6.386;2022-09-09T15:52:55;19.90;99.90
51579;DHT22;47998;53.242;6.386;2022-09-09T15:55:21;20.10;99.90
51579;DHT22;47998;53.242;6.386;2022-09-09T15:57:47;20.50;99.90
51579;DHT22;47998;53.242;6.386;2022-09-09T16:00:13;20.60;99.90
51579;DHT22;47998;53.242;6.386;2022-09-09T16:02:39;20.40;99.90
51579;DHT22;47998;53.242;6.386;2022-09-09T16:05:06;20.30;99.90
51579;DHT22;47998;53.242;6.386;2022-09-09T16:07:31;19.90;99.90
51579;DHT22;47998;53.242;6.386;2022-09-09T16:09:57;19.70;99.90
51579;DHT22;47998;53.242;6.386;2022-09-09T16:12:23;19.50;99.90
51579;DHT22;47998;53.242;6.386;2022-09-09T16:14:49;19.30;99.90
51579;DHT22;47998;53.242;6.386;2022-09-09T16:17:15;19.00;99.90
51579;DHT22;47998;53.242;6.386;2022-09-09T16:19:41;18.50;6.20
51579;DHT22;47998;53.242;6.386;2022-09-09T16:22:06;18.10;99.90
51579;DHT22;47998;53.242;6.386;2022-09-09T16:24:33;17.90;99.90
51579;DHT22;47998;53.242;6.386;2022-09-09T16:26:58;17.80;1.00
51579;DHT22;47998;53.242;6.386;2022-09-09T16:29:24;17.70;1.00
51579;DHT22;47998;53.242;6.386;2022-09-09T16:31:53;17.60;1.00
51579;DHT22;47998;53.242;6.386;2022-09-09T16:34:20;17.50;46.80
51579;DHT22;47998;53.242;6.386;2022-09-09T16:36:46;17.40;91.50
51579;DHT22;47998;53.242;6.386;2022-09-09T16:39:16;17.40;99.90
51579;DHT22;47998;53.242;6.386;2022-09-09T16:41:43;17.30;99.90
51579;DHT22;47998;53.242;6.386;2022-09-09T16:44:11;17.30;99.90
51579;DHT22;47998;53.242;6.386;2022-09-09T16:46:39;17.20;99.90
51579;DHT22;47998;53.242;6.386;2022-09-09T16:49:07;17.20;99.90
51579;DHT22;47998;53.242;6.386;2022-09-09T16:51:45;17.10;99.90
51579;DHT22;47998;53.242;6.386;2022-09-09T16:54:13;17.10;99.90
51579;DHT22;47998;53.242;6.386;2022-09-09T16:56:42;17.00;1.00
51579;DHT22;47998;53.242;6.386;2022-09-09T16:59:13;16.90;1.00
51579;DHT22;47998;53.242;6.386;2022-09-09T17:01:40;16.90;1.00
51579;DHT22;47998;53.242;6.386;2022-09-09T17:04:15;16.90;1.00
51579;DHT22;47998;53.242;6.386;2022-09-09T17:06:47;16.90;1.00
51579;DHT22;47998;53.242;6.386;2022-09-09T17:09:15;16.90;24.70
51579;DHT22;47998;53.242;6.386;2022-09-09T17:11:40;16.90;95.70
51579;DHT22;47998;53.242;6.386;2022-09-09T17:14:08;16.80;99.90
51579;DHT22;47998;53.242;6.386;2022-09-09T17:16:35;16.80;99.90
51579;DHT22;47998;53.242;6.386;2022-09-09T17:19:02;16.90;99.10
51579;DHT22;47998;53.242;6.386;2022-09-09T17:21:30;16.80;57.90
51579;DHT22;47998;53.242;6.386;2022-09-09T17:23:56;16.80;24.80
51579;DHT22;47998;53.242;6.386;2022-09-09T17:26:27;16.80;7.40
51579;DHT22;47998;53.242;6.386;2022-09-09T17:28:54;16.70;1.00
51579;DHT22;47998;53.242;6.386;2022-09-09T17:31:21;16.70;1.00
51579;DHT22;47998;53.242;6.386;2022-09-09T17:33:48;16.70;1.00
51579;DHT22;47998;53.242;6.386;2022-09-09T17:36:15;16.60;1.00
51579;DHT22;47998;53.242;6.386;2022-09-09T17:38:41;16.60;1.00
51579;DHT22;47998;53.242;6.386;2022-09-09T17:41:12;16.60;25.30
51579;DHT22;47998;53.242;6.386;2022-09-09T17:43:40;16.60;53.00
51579;DHT22;47998;53.242;6.386;2022-09-09T17:46:22;16.60;88.50
51579;DHT22;47998;53.242;6.386;2022-09-09T17:48:49;16.60;99.90